createdAt,value
2023-01-08T00:02:14.334Z,101414.09
2023-01-08T00:05:13.278Z,101407.69
2023-01-08T00:07:55.803Z,101405.81
2023-01-08T00:10:22.841Z,101389.81
2023-01-08T00:12:49.926Z,101387.78
2023-01-08T00:15:28.039Z,101380.56
2023-01-08T00:17:55.039Z,101375.22
2023-01-08T00:20:25.035Z,101362.63
2023-01-08T00:23:19.829Z,101368.75
2023-01-08T00:25:47.285Z,101358.06
2023-01-08T00:28:15.386Z,101361.69
2023-01-08T00:30:42.909Z,101362.47
2023-01-08T00:33:10.970Z,101354.44
2023-01-08T00:35:39.456Z,101358.84
2023-01-08T00:38:10.301Z,101356.91
2023-01-08T00:40:40.650Z,101351.50
2023-01-08T00:43:08.259Z,101357.47
2023-01-08T00:45:35.799Z,101349.28
2023-01-08T00:48:05.583Z,101350.81
2023-01-08T00:50:35.700Z,101351.44
2023-01-08T00:53:06.841Z,101353.06
2023-01-08T00:55:34.309Z,101354.38
2023-01-08T00:58:01.245Z,101351.31
2023-01-08T01:00:30.997Z,101351.88
2023-01-08T01:03:00.903Z,101346.13
2023-01-08T01:05:27.854Z,101345.72
2023-01-08T01:08:07.135Z,101342.56
2023-01-08T01:10:40.371Z,101345.75
2023-01-08T01:13:29.499Z,101335.53
2023-01-08T01:16:28.159Z,101339.81
2023-01-08T01:18:58.283Z,101351.69
2023-01-08T01:21:35.163Z,101346.91
2023-01-08T01:24:07.232Z,101343.91
2023-01-08T01:26:36.714Z,101340.91
2023-01-08T01:29:06.764Z,101338.78
2023-01-08T01:31:55.661Z,101343.94
2023-01-08T01:34:43.908Z,101336.47
2023-01-08T01:39:49.246Z,101318.94
2023-01-08T01:42:38.265Z,101319.59
2023-01-08T01:45:19.503Z,101321.09
2023-01-08T01:48:11.510Z,101324.50
2023-01-08T01:50:49.749Z,101320.66
2023-01-08T01:53:51.502Z,101323.13
2023-01-08T01:56:18.678Z,101323.84
2023-01-08T01:58:48.443Z,101327.28
2023-01-08T02:01:20.100Z,101330.50
2023-01-08T02:03:50.127Z,101335.84
2023-01-08T02:06:28.535Z,101331.22
2023-01-08T02:08:57.432Z,101336.38
2023-01-08T02:11:43.017Z,101338.09
2023-01-08T02:14:37.971Z,101344.19
2023-01-08T02:17:10.874Z,101338.81
2023-01-08T02:19:41.391Z,101337.63
2023-01-08T02:22:42.358Z,101341.84
2023-01-08T02:25:40.721Z,101334.53
2023-01-08T02:28:13.317Z,101330.91
2023-01-08T02:31:12.380Z,101323.63
2023-01-08T02:33:41.177Z,101330.47
2023-01-08T02:36:24.086Z,101328.34
2023-01-08T02:39:15.316Z,101328.09
2023-01-08T02:41:51.461Z,101318.88
2023-01-08T02:44:54.087Z,101309.66
2023-01-08T02:47:45.057Z,101302.84
2023-01-08T02:50:36.891Z,101308.41
2023-01-08T02:53:25.701Z,101305.59
2023-01-08T02:55:57.897Z,101298.56
2023-01-08T02:58:27.949Z,101303.78
2023-01-08T03:00:55.264Z,101301.97
2023-01-08T03:03:27.386Z,101288.50
2023-01-08T03:06:03.189Z,101286.78
2023-01-08T03:08:34.390Z,101278.66
2023-01-08T03:11:11.251Z,101272.22
2023-01-08T03:14:00.570Z,101271.25
2023-01-08T03:16:38.364Z,101262.59
2023-01-08T03:19:54.950Z,101261.75
2023-01-08T03:22:24.179Z,101255.78
2023-01-08T03:24:54.879Z,101246.88
2023-01-08T03:27:28.311Z,101242.50
2023-01-08T03:29:58.577Z,101235.44
2023-01-08T03:32:48.381Z,101228.38
2023-01-08T03:35:40.484Z,101239.31
2023-01-08T03:38:18.905Z,101240.78
2023-01-08T03:40:51.890Z,101232.66
2023-01-08T03:43:18.993Z,101229.88
2023-01-08T03:45:57.429Z,101240.34
2023-01-08T03:49:13.381Z,101231.13
2023-01-08T03:51:24.997Z,101229.19
2023-01-08T03:53:56.835Z,101220.19
2023-01-08T03:56:23.750Z,101227.84
2023-01-08T04:01:36.209Z,101219.72
2023-01-08T04:04:03.360Z,101224.88
2023-01-08T04:06:37.137Z,101211.25
2023-01-08T04:09:07.549Z,101202.03
2023-01-08T04:11:40.744Z,101195.59
2023-01-08T04:14:08.529Z,101193.66
2023-01-08T04:16:35.615Z,101194.25
2023-01-08T04:19:02.600Z,101191.38
2023-01-08T04:21:29.714Z,101186.72
2023-01-08T04:28:21.352Z,101161.69
2023-01-08T04:34:21.555Z,101170.16
2023-01-08T04:36:55.908Z,101177.22
2023-01-08T04:39:22.978Z,101177.22
2023-01-08T04:42:20.938Z,101167.28
2023-01-08T04:44:47.976Z,101168.50
2023-01-08T04:47:15.954Z,101160.31
2023-01-08T04:49:48.925Z,101151.56
2023-01-08T04:52:15.908Z,101149.00
2023-01-08T04:54:42.944Z,101146.44
2023-01-08T04:57:10.854Z,101147.53
2023-01-08T04:59:38.041Z,101133.41
2023-01-08T05:02:12.504Z,101126.56
2023-01-08T05:04:39.615Z,101132.88
2023-01-08T05:07:07.975Z,101132.22
2023-01-08T05:09:34.962Z,101122.63
2023-01-08T05:12:19.705Z,101117.50
2023-01-08T05:14:47.732Z,101111.50
2023-01-08T05:19:58.818Z,101103.84
2023-01-08T05:22:25.844Z,101095.09
2023-01-08T05:24:52.833Z,101096.06
2023-01-08T05:27:21.199Z,101105.78
2023-01-08T05:29:48.218Z,101112.00
2023-01-08T05:32:17.057Z,101125.47
2023-01-08T05:34:44.940Z,101116.84
2023-01-08T05:37:12.236Z,101119.97
2023-01-08T05:39:39.267Z,101113.13
2023-01-08T05:42:07.275Z,101119.78
2023-01-08T05:44:38.424Z,101140.66
2023-01-08T05:47:05.471Z,101135.75
2023-01-08T05:49:54.386Z,101126.50
2023-01-08T05:52:23.173Z,101136.44
2023-01-08T05:55:15.325Z,101143.81
2023-01-08T05:57:45.743Z,101151.94
2023-01-08T06:00:15.856Z,101146.59
2023-01-08T06:02:47.711Z,101158.13
2023-01-08T06:05:28.588Z,101164.34
2023-01-08T06:07:55.606Z,101158.75
2023-01-08T06:10:47.875Z,101160.38
2023-01-08T06:13:22.387Z,101148.72
2023-01-08T06:15:49.540Z,101153.22
2023-01-08T06:18:16.739Z,101145.19
2023-01-08T06:20:43.791Z,101152.34
2023-01-08T06:23:11.866Z,101162.91
2023-01-08T06:25:38.907Z,101163.69
2023-01-08T06:28:24.078Z,101160.03
2023-01-08T06:31:00.552Z,101161.97
2023-01-08T06:33:27.807Z,101163.69
2023-01-08T06:36:08.260Z,101175.13
2023-01-08T06:38:43.867Z,101181.19
2023-01-08T06:41:19.333Z,101173.94
2023-01-08T06:43:49.685Z,101179.28
2023-01-08T06:46:16.685Z,101164.97
2023-01-08T06:48:45.621Z,101155.94
2023-01-08T06:51:12.595Z,101160.44
2023-01-08T06:56:28.647Z,101150.59
2023-01-08T06:58:56.848Z,101144.53
2023-01-08T07:01:24.384Z,101149.97
2023-01-08T07:03:51.391Z,101140.38
2023-01-08T07:06:22.684Z,101137.91
2023-01-08T07:08:50.186Z,101136.53
2023-01-08T07:11:17.923Z,101139.34
2023-01-08T07:13:44.833Z,101141.25
2023-01-08T07:16:14.295Z,101147.78
2023-01-08T07:18:43.044Z,101143.63
2023-01-08T07:21:28.485Z,101141.38
2023-01-08T07:23:59.705Z,101140.63
2023-01-08T07:26:27.817Z,101141.63
2023-01-08T07:28:54.924Z,101144.06
2023-01-08T07:31:22.214Z,101144.91
2023-01-08T07:33:49.392Z,101125.97
2023-01-08T07:36:16.764Z,101119.44
2023-01-08T07:38:43.685Z,101127.16
2023-01-08T07:41:13.506Z,101133.31
2023-01-08T07:43:40.528Z,101135.66
2023-01-08T07:46:07.752Z,101147.88
2023-01-08T07:48:34.923Z,101150.22
2023-01-08T07:51:07.588Z,101145.47
2023-01-08T07:53:36.178Z,101152.31
2023-01-08T07:56:06.003Z,101139.47
2023-01-08T07:58:33.106Z,101130.03
2023-01-08T08:01:00.933Z,101122.28
2023-01-08T08:03:28.247Z,101121.59
2023-01-08T08:06:20.696Z,101113.16
2023-01-08T08:08:48.005Z,101110.06
2023-01-08T08:11:25.204Z,101107.88
2023-01-08T08:13:53.807Z,101111.13
2023-01-08T08:16:21.721Z,101111.88
2023-01-08T08:18:48.659Z,101111.03
2023-01-08T08:21:15.532Z,101117.00
2023-01-08T08:23:42.932Z,101119.53
2023-01-08T08:26:10.012Z,101117.16
2023-01-08T08:28:36.964Z,101129.09
2023-01-08T08:31:03.943Z,101119.56
2023-01-08T08:33:31.208Z,101123.88
2023-01-08T08:35:58.582Z,101120.59
2023-01-08T08:38:26.667Z,101128.31
2023-01-08T08:40:53.869Z,101125.25
2023-01-08T08:43:20.842Z,101127.47
2023-01-08T08:45:47.927Z,101115.31
2023-01-08T08:48:16.837Z,101111.91
2023-01-08T08:50:43.808Z,101114.34
2023-01-08T08:53:10.856Z,101123.09
2023-01-08T08:55:37.859Z,101127.84
2023-01-08T08:58:13.924Z,101119.69
2023-01-08T09:00:43.205Z,101128.13
2023-01-08T09:03:15.586Z,101117.03
2023-01-08T09:05:45.631Z,101105.34
2023-01-08T09:08:31.696Z,101088.16
2023-01-08T09:11:17.376Z,101082.19
2023-01-08T09:16:29.325Z,101052.28
2023-01-08T09:18:56.644Z,101060.44
2023-01-08T09:21:23.664Z,101063.09
2023-01-08T09:23:50.841Z,101079.28
2023-01-08T09:26:17.847Z,101086.56
2023-01-08T09:28:44.891Z,101091.84
2023-01-08T09:31:11.902Z,101096.94
2023-01-08T09:33:39.017Z,101086.22
2023-01-08T09:36:11.100Z,101087.28
2023-01-08T09:38:38.056Z,101091.81
2023-01-08T09:41:12.967Z,101091.44
2023-01-08T09:43:59.553Z,101093.22
2023-01-08T09:46:46.930Z,101099.78
2023-01-08T09:49:21.870Z,101082.63
2023-01-08T09:51:49.056Z,101087.44
2023-01-08T09:54:17.766Z,101087.69
2023-01-08T09:56:45.032Z,101088.28
2023-01-08T09:59:16.818Z,101089.81
2023-01-08T10:01:45.994Z,101082.50
2023-01-08T10:04:24.221Z,101082.28
2023-01-08T10:07:24.767Z,101074.53
2023-01-08T10:09:53.092Z,101071.25
2023-01-08T10:12:32.281Z,101071.44
2023-01-08T10:15:02.930Z,101067.94
2023-01-08T10:17:48.413Z,101065.31
2023-01-08T10:20:41.434Z,101074.16
2023-01-08T10:23:17.637Z,101084.59
2023-01-08T10:26:02.548Z,101071.19
2023-01-08T10:28:31.087Z,101062.13
2023-01-08T10:31:11.468Z,101057.69
2023-01-08T10:33:43.778Z,101050.09
2023-01-08T10:36:19.335Z,101042.28
2023-01-08T10:39:01.027Z,101038.00
2023-01-08T10:41:28.807Z,101039.34
2023-01-08T10:47:38.422Z,101019.34
2023-01-08T10:50:38.046Z,101019.06
2023-01-08T10:53:18.351Z,101005.88
2023-01-08T10:55:45.356Z,101006.19
2023-01-08T10:58:15.463Z,101003.81
2023-01-08T11:00:42.731Z,101003.44
2023-01-08T11:03:30.071Z,101001.97
2023-01-08T11:05:57.503Z,100995.13
2023-01-08T11:08:25.015Z,100995.19
2023-01-08T11:11:00.129Z,101000.88
2023-01-08T11:13:28.694Z,100984.56
2023-01-08T11:16:07.125Z,100979.44
2023-01-08T11:18:46.904Z,100977.53
2023-01-08T11:21:25.934Z,100970.97
2023-01-08T11:24:02.372Z,100953.97
2023-01-08T11:26:29.699Z,100942.88
2023-01-08T11:29:06.389Z,100926.00
2023-01-08T11:32:07.180Z,100924.63
2023-01-08T11:35:03.618Z,100915.06
2023-01-08T11:37:40.749Z,100901.41
2023-01-08T11:43:11.201Z,100895.63
2023-01-08T11:46:16.684Z,100886.06
2023-01-08T11:49:01.272Z,100886.53
2023-01-08T11:51:58.534Z,100885.50
2023-01-08T11:54:44.129Z,100881.81
2023-01-08T11:57:24.686Z,100876.13
2023-01-08T12:00:16.551Z,100872.72
2023-01-08T12:02:53.303Z,100869.13
2023-01-08T12:05:45.208Z,100869.34
2023-01-08T12:08:41.690Z,100869.38
2023-01-08T12:11:27.765Z,100862.13
2023-01-08T12:14:17.555Z,100863.63
2023-01-08T12:17:04.388Z,100854.41
2023-01-08T12:19:52.221Z,100854.03
2023-01-08T12:22:56.684Z,100851.09
2023-01-08T12:25:47.867Z,100852.09
2023-01-08T12:28:33.473Z,100837.00
2023-01-08T12:31:00.820Z,100833.91
2023-01-08T12:33:33.633Z,100832.25
2023-01-08T12:36:06.246Z,100834.28
2023-01-08T12:38:38.239Z,100833.59
2023-01-08T12:41:21.854Z,100835.16
2023-01-08T12:44:11.576Z,100836.69
2023-01-08T12:47:02.949Z,100825.44
2023-01-08T12:49:51.568Z,100810.66
2023-01-08T12:52:45.251Z,100795.91
2023-01-08T12:55:33.887Z,100795.56
2023-01-08T12:58:11.714Z,100794.19
2023-01-08T13:01:11.040Z,100804.19
2023-01-08T13:03:49.211Z,100793.19
2023-01-08T13:06:20.751Z,100784.97
2023-01-08T13:08:51.592Z,100781.88
2023-01-08T13:11:33.658Z,100775.47
2023-01-08T13:14:10.699Z,100759.94
2023-01-08T13:17:00.406Z,100755.41
2023-01-08T13:19:47.065Z,100762.38
2023-01-08T13:22:33.083Z,100757.31
2023-01-08T13:28:00.725Z,100745.75
2023-01-08T13:30:35.736Z,100733.91
2023-01-08T13:33:03.031Z,100728.66
2023-01-08T13:35:31.669Z,100723.44
2023-01-08T13:38:11.209Z,100724.00
2023-01-08T13:40:44.552Z,100704.13
2023-01-08T13:43:36.102Z,100682.81
2023-01-08T13:46:03.221Z,100684.06
2023-01-08T13:49:01.677Z,100699.75
2023-01-08T13:51:42.936Z,100702.59
2023-01-08T13:54:12.876Z,100706.06
2023-01-08T13:56:45.648Z,100700.97
2023-01-08T13:59:41.098Z,100727.69
2023-01-08T14:02:28.849Z,100734.44
2023-01-08T14:04:57.382Z,100733.72
2023-01-08T14:07:31.120Z,100739.00
2023-01-08T14:10:37.621Z,100734.94
2023-01-08T14:13:08.766Z,100717.72
2023-01-08T14:15:38.623Z,100707.28
2023-01-08T14:18:06.655Z,100703.34
2023-01-08T14:20:36.973Z,100715.53
2023-01-08T14:23:38.201Z,100709.25
2023-01-08T14:26:10.713Z,100696.50
2023-01-08T14:31:27.532Z,100669.69
2023-01-08T14:34:16.154Z,100661.03
2023-01-08T14:37:02.527Z,100658.09
2023-01-08T14:39:35.310Z,100665.03
2023-01-08T14:42:28.682Z,100670.81
2023-01-08T14:44:58.612Z,100679.88
2023-01-08T14:47:30.828Z,100674.88
2023-01-08T14:49:58.615Z,100670.63
2023-01-08T14:52:26.812Z,100660.03
2023-01-08T14:54:56.529Z,100646.56
2023-01-08T14:57:24.351Z,100637.19
2023-01-08T14:59:57.852Z,100640.59
2023-01-08T15:02:39.409Z,100645.50
2023-01-08T15:05:32.138Z,100634.97
2023-01-08T15:08:22.865Z,100628.91
2023-01-08T15:11:18.948Z,100631.28
2023-01-08T15:13:48.501Z,100618.19
2023-01-08T15:16:30.061Z,100628.34
2023-01-08T15:19:07.649Z,100646.50
2023-01-08T15:21:35.403Z,100643.41
2023-01-08T15:24:05.876Z,100632.97
2023-01-08T15:26:33.859Z,100634.44
2023-01-08T15:29:24.348Z,100629.19
2023-01-08T15:31:51.487Z,100608.97
2023-01-08T15:34:21.732Z,100609.28
2023-01-08T15:36:51.804Z,100616.97
2023-01-08T15:39:27.424Z,100614.41
2023-01-08T15:42:13.839Z,100626.63
2023-01-08T15:44:41.213Z,100618.50
2023-01-08T15:47:11.873Z,100614.41
2023-01-08T15:49:38.800Z,100627.56
2023-01-08T15:52:05.881Z,100631.22
2023-01-08T15:54:32.791Z,100632.94
2023-01-08T15:57:00.888Z,100613.09
2023-01-08T15:59:31.680Z,100607.41
2023-01-08T16:01:58.887Z,100610.03
2023-01-08T16:04:25.841Z,100613.47
2023-01-08T16:06:52.867Z,100607.81
2023-01-08T16:12:29.156Z,100618.09
2023-01-08T16:15:15.080Z,100612.78
2023-01-08T16:17:43.359Z,100618.19
2023-01-08T16:20:11.696Z,100605.66
2023-01-08T16:22:38.814Z,100616.28
2023-01-08T16:29:15.070Z,100619.75
2023-01-08T16:31:50.278Z,100613.25
2023-01-08T16:34:21.233Z,100612.28
2023-01-08T16:36:49.520Z,100615.72
2023-01-08T16:39:18.065Z,100620.38
2023-01-08T16:41:47.562Z,100640.34
2023-01-08T16:44:21.399Z,100650.06
2023-01-08T16:46:52.059Z,100644.53
2023-01-08T16:49:19.251Z,100644.41
2023-01-08T16:51:46.499Z,100641.31
2023-01-08T16:54:15.357Z,100637.22
2023-01-08T16:56:42.947Z,100648.94
2023-01-08T16:59:22.376Z,100650.22
2023-01-08T17:01:51.993Z,100645.13
2023-01-08T17:04:29.707Z,100631.97
2023-01-08T17:07:00.349Z,100630.28
2023-01-08T17:09:35.044Z,100633.94
2023-01-08T17:12:23.575Z,100648.38
2023-01-08T17:14:53.461Z,100604.03
2023-01-08T17:17:29.263Z,100578.16
2023-01-08T17:19:56.729Z,100571.22
2023-01-08T17:22:26.632Z,100582.56
2023-01-08T17:24:53.549Z,100591.00
2023-01-08T17:27:22.516Z,100597.66
2023-01-08T17:29:49.884Z,100602.59
2023-01-08T17:32:16.861Z,100619.00
2023-01-08T17:34:44.121Z,100620.13
2023-01-08T17:37:13.577Z,100612.91
2023-01-08T17:39:40.629Z,100623.81
2023-01-08T17:42:30.968Z,100630.03
2023-01-08T17:45:03.055Z,100646.13
2023-01-08T17:47:31.011Z,100653.47
2023-01-08T17:49:58.240Z,100652.34
2023-01-08T17:52:26.522Z,100664.91
2023-01-08T17:54:54.415Z,100674.63
2023-01-08T17:57:22.446Z,100677.19
2023-01-08T18:00:00.048Z,100666.72
2023-01-08T18:02:28.016Z,100642.41
2023-01-08T18:04:55.170Z,100652.03
2023-01-08T18:07:24.309Z,100650.34
2023-01-08T18:10:04.310Z,100643.25
2023-01-08T18:12:36.654Z,100644.13
2023-01-08T18:15:33.203Z,100639.47
2023-01-08T18:18:02.420Z,100637.03
2023-01-08T18:20:39.430Z,100617.56
2023-01-08T18:23:06.485Z,100637.03
2023-01-08T18:25:35.425Z,100638.47
2023-01-08T18:28:04.188Z,100628.97
2023-01-08T18:30:46.012Z,100624.34
2023-01-08T18:33:52.214Z,100619.25
2023-01-08T18:36:22.824Z,100624.59
2023-01-08T18:38:50.073Z,100626.84
2023-01-08T18:41:37.715Z,100635.59
2023-01-08T18:44:11.381Z,100635.28
2023-01-08T18:53:50.476Z,100657.53
2023-01-08T18:56:28.227Z,100650.47
2023-01-08T18:58:56.230Z,100654.13
2023-01-08T19:01:24.015Z,100657.22
2023-01-08T19:03:55.903Z,100654.81
2023-01-08T19:06:24.153Z,100658.31
2023-01-08T19:08:56.237Z,100648.44
2023-01-08T19:12:11.984Z,100650.00
2023-01-08T19:14:39.284Z,100660.28
2023-01-08T19:17:06.476Z,100665.38
2023-01-08T19:19:33.485Z,100658.47
2023-01-08T19:22:01.122Z,100660.00
2023-01-08T19:24:31.466Z,100666.50
2023-01-08T19:26:58.391Z,100665.66
2023-01-08T19:29:32.418Z,100672.97
2023-01-08T19:31:59.516Z,100677.47
2023-01-08T19:34:26.494Z,100673.97
2023-01-08T19:37:01.269Z,100678.34
2023-01-08T19:39:41.779Z,100672.97
2023-01-08T19:42:34.946Z,100675.94
2023-01-08T19:45:41.717Z,100685.91
2023-01-08T19:48:09.095Z,100689.59
2023-01-08T19:50:39.852Z,100690.59
2023-01-08T19:53:15.148Z,100691.28
2023-01-08T19:55:42.367Z,100696.94
2023-01-08T19:58:09.407Z,100704.00
2023-01-08T20:00:39.277Z,100709.06
2023-01-08T20:03:12.370Z,100710.50
2023-01-08T20:05:45.491Z,100708.25
2023-01-08T20:12:20.276Z,100720.16
2023-01-08T20:15:57.317Z,100712.56
2023-01-08T20:22:40.677Z,100707.78
2023-01-08T20:29:04.849Z,100725.41
2023-01-08T20:31:34.633Z,100719.34
2023-01-08T20:43:29.275Z,100707.81
2023-01-08T20:45:56.530Z,100703.03
2023-01-08T20:52:16.406Z,100713.81
2023-01-08T20:55:06.078Z,100716.66
2023-01-08T20:58:33.361Z,100713.81
2023-01-08T21:06:24.281Z,100721.16
2023-01-08T21:08:58.957Z,100709.84
2023-01-08T21:11:27.182Z,100711.59
2023-01-08T21:13:55.994Z,100714.53
2023-01-08T21:16:45.673Z,100709.72
2023-01-08T21:19:15.187Z,100704.31
2023-01-08T21:21:42.208Z,100702.09
2023-01-08T21:24:12.878Z,100694.78
2023-01-08T21:27:01.801Z,100703.28
2023-01-08T21:29:29.448Z,100711.75
2023-01-08T21:31:57.211Z,100710.06
2023-01-08T21:34:24.176Z,100710.63
2023-01-08T21:37:09.638Z,100704.16
2023-01-08T21:39:38.999Z,100704.16
2023-01-08T21:42:24.503Z,100690.03
2023-01-08T21:45:10.086Z,100690.03
2023-01-08T21:47:37.065Z,100688.72
2023-01-08T21:50:04.136Z,100687.19
2023-01-08T21:53:08.524Z,100695.22
2023-01-08T21:55:35.494Z,100702.28
2023-01-08T21:58:20.936Z,100700.59
2023-01-08T22:00:47.846Z,100702.81
2023-01-08T22:03:14.813Z,100681.81
2023-01-08T22:06:03.127Z,100674.06
2023-01-08T22:08:31.382Z,100676.00
2023-01-08T22:11:00.521Z,100678.56
2023-01-08T22:13:28.103Z,100685.16
2023-01-08T22:16:07.858Z,100693.59
2023-01-08T22:18:35.784Z,100693.88
2023-01-08T22:23:57.203Z,100701.47
2023-01-08T22:26:30.704Z,100707.81
2023-01-08T22:28:59.896Z,100705.28
2023-01-08T22:31:35.605Z,100694.69
2023-01-08T22:34:05.612Z,100709.06
2023-01-08T22:36:32.568Z,100698.63
2023-01-08T22:38:59.642Z,100708.38
2023-01-08T22:41:26.622Z,100707.66
2023-01-08T22:43:56.992Z,100706.66
2023-01-08T22:46:24.728Z,100718.38
2023-01-08T22:49:01.522Z,100723.72
2023-01-08T22:51:28.792Z,100713.97
2023-01-08T22:54:03.726Z,100712.28
2023-01-08T22:56:30.944Z,100713.53
2023-01-08T22:58:58.231Z,100717.19
2023-01-08T23:01:29.469Z,100719.16
2023-01-08T23:04:00.156Z,100724.78
2023-01-08T23:06:29.545Z,100725.03
2023-01-08T23:08:58.369Z,100713.75
2023-01-08T23:11:27.940Z,100714.84
2023-01-08T23:14:20.055Z,100724.13
2023-01-08T23:16:47.148Z,100728.31
2023-01-08T23:19:15.180Z,100729.41
2023-01-08T23:21:45.947Z,100735.91
2023-01-08T23:24:13.909Z,100742.50
2023-01-08T23:26:41.932Z,100745.28
2023-01-08T23:29:09.610Z,100749.06
2023-01-08T23:31:41.280Z,100749.34
2023-01-08T23:34:08.430Z,100746.78
2023-01-08T23:36:35.979Z,100749.59
2023-01-08T23:39:04.901Z,100751.53
2023-01-08T23:41:34.573Z,100743.63
2023-01-08T23:44:07.413Z,100755.47
2023-01-08T23:46:35.422Z,100758.41
2023-01-08T23:49:02.393Z,100766.69
2023-01-08T23:51:33.454Z,100758.06
2023-01-08T23:54:00.507Z,100758.31
2023-01-08T23:56:27.507Z,100753.94
2023-01-08T23:58:57.847Z,100753.09
